KVIS

Details ICAO KVIS (VIS)
Name VISALIA MUNI
Region United States
Timezone America/Los_Angeles (UTC-7.0)
Plans Departing 20
Arriving 14
Stats Elevation 295 ft / 90 m (AMSL)
Location 36.318653° -119.392880°
Runways 1
Magnetic Variation 12.635° E
Sunrise 2018-05-21 12:48:08 UTC / 2018-05-21 05:48:08 Local
Sunset 2018-05-22 03:03:06 UTC / 2018-05-21 20:03:06 Local
Advertisement - Login to hide

Runways

ID Width Length Bearing (true) Bearing (mag) Surface Threshold Offset Overrun Length
12 150 ft / 46 m 6,560 ft / 1,999 m 134.92° 122.29° Asphalt 275 ft / 84 m 300 ft / 91 m
30 150 ft / 46 m 6,560 ft / 1,999 m 314.93° 302.30° Asphalt 0 ft / 0 m 0 ft / 0 m

Approach Navaids

Runway Type Ident Frequency Range Bearing (true) Bearing (mag) Slope Elevation
30 Localiser IVIS 108.50 MHz 18 nm / 33 km 314.92° 302.29° - 292 ft / 89 m (AMSL)
30 Glidescope IVIS 108.50 MHz 10 nm / 19 km 314.92° 302.29° 3.00° 292 ft / 89 m (AMSL)

Map

Weather


0- 5 10 15 20 25 30 35+ Temperature / ° C

Clouds and Precipitation
Forecast for 2018-05-21 12:00 UTC. Updated 2 hours ago

Ground ~20,000 ft ~40,000 ft Winds

METAR

KVIS 211056Z AUTO 32006KT 10SM CLR 14/08 A2982 RMK AO2 SLP104 T01390078

TAF

TAF KVIS 210520Z 2106/2206 31010KT P6SM BKN200 FM211900 30007KT P6SM SCT050 BKN120

Frequencies

Recorded 119.92 MHz AWOS 3
Approach 118.50 MHz FRESNO APP/DEP
Unicom 123.05 MHz CTAF/UNICOM
Warning: Do not use this data for real-world aviation or navigation. No guarantee of current accuracy is given.